sensor_id;sensor_type;location;lat;lon;timestamp;P1;durP1;ratioP1;P2;durP2;ratioP2
23826;SDS011;12094;50.822;4.376;2022-12-05T00:02:09;102.10;;;39.97;;
23826;SDS011;12094;50.822;4.376;2022-12-05T00:04:37;104.72;;;39.17;;
23826;SDS011;12094;50.822;4.376;2022-12-05T00:07:04;93.03;;;38.00;;
23826;SDS011;12094;50.822;4.376;2022-12-05T00:09:32;103.40;;;40.17;;
23826;SDS011;12094;50.822;4.376;2022-12-05T00:11:59;96.95;;;39.03;;
23826;SDS011;12094;50.822;4.376;2022-12-05T00:16:56;106.28;;;39.83;;
23826;SDS011;12094;50.822;4.376;2022-12-05T00:19:26;107.68;;;39.47;;
23826;SDS011;12094;50.822;4.376;2022-12-05T00:21:53;92.85;;;36.63;;
23826;SDS011;12094;50.822;4.376;2022-12-05T00:24:20;85.05;;;35.70;;
23826;SDS011;12094;50.822;4.376;2022-12-05T00:26:47;94.80;;;36.45;;
23826;SDS011;12094;50.822;4.376;2022-12-05T00:29:14;98.13;;;35.88;;
23826;SDS011;12094;50.822;4.376;2022-12-05T00:31:42;93.05;;;35.70;;
23826;SDS011;12094;50.822;4.376;2022-12-05T00:34:09;92.68;;;34.25;;
23826;SDS011;12094;50.822;4.376;2022-12-05T00:36:36;85.50;;;34.25;;
23826;SDS011;12094;50.822;4.376;2022-12-05T00:39:09;87.90;;;34.65;;
23826;SDS011;12094;50.822;4.376;2022-12-05T00:41:38;78.80;;;31.23;;
23826;SDS011;12094;50.822;4.376;2022-12-05T00:44:05;90.15;;;33.20;;
23826;SDS011;12094;50.822;4.376;2022-12-05T00:46:32;83.78;;;33.20;;
23826;SDS011;12094;50.822;4.376;2022-12-05T00:49:01;80.90;;;33.35;;
23826;SDS011;12094;50.822;4.376;2022-12-05T00:51:34;76.25;;;31.75;;
23826;SDS011;12094;50.822;4.376;2022-12-05T00:54:04;83.78;;;31.58;;
23826;SDS011;12094;50.822;4.376;2022-12-05T00:56:33;78.65;;;30.17;;
23826;SDS011;12094;50.822;4.376;2022-12-05T00:59:00;75.43;;;30.08;;
23826;SDS011;12094;50.822;4.376;2022-12-05T01:01:30;74.32;;;30.85;;
23826;SDS011;12094;50.822;4.376;2022-12-05T01:04:06;77.32;;;29.90;;
23826;SDS011;12094;50.822;4.376;2022-12-05T01:06:35;73.18;;;30.75;;
23826;SDS011;12094;50.822;4.376;2022-12-05T01:09:03;73.70;;;29.85;;
23826;SDS011;12094;50.822;4.376;2022-12-05T01:11:32;71.68;;;30.63;;
23826;SDS011;12094;50.822;4.376;2022-12-05T01:14:06;74.60;;;29.30;;
23826;SDS011;12094;50.822;4.376;2022-12-05T01:16:34;78.38;;;30.30;;
23826;SDS011;12094;50.822;4.376;2022-12-05T01:19:07;73.22;;;30.02;;
23826;SDS011;12094;50.822;4.376;2022-12-05T01:21:38;72.40;;;29.20;;
23826;SDS011;12094;50.822;4.376;2022-12-05T01:24:06;71.55;;;28.67;;
23826;SDS011;12094;50.822;4.376;2022-12-05T01:26:34;76.75;;;29.85;;
23826;SDS011;12094;50.822;4.376;2022-12-05T01:29:01;76.93;;;29.85;;
23826;SDS011;12094;50.822;4.376;2022-12-05T01:31:30;74.28;;;29.38;;
23826;SDS011;12094;50.822;4.376;2022-12-05T01:34:00;70.00;;;28.85;;
23826;SDS011;12094;50.822;4.376;2022-12-05T01:36:29;71.90;;;28.25;;
23826;SDS011;12094;50.822;4.376;2022-12-05T01:39:00;70.50;;;29.58;;
23826;SDS011;12094;50.822;4.376;2022-12-05T01:41:33;67.20;;;28.55;;
23826;SDS011;12094;50.822;4.376;2022-12-05T01:44:56;74.13;;;29.67;;
23826;SDS011;12094;50.822;4.376;2022-12-05T01:46:54;70.60;;;29.08;;
23826;SDS011;12094;50.822;4.376;2022-12-05T01:51:57;66.38;;;28.95;;
23826;SDS011;12094;50.822;4.376;2022-12-05T01:54:27;67.38;;;28.80;;
23826;SDS011;12094;50.822;4.376;2022-12-05T01:57:00;69.95;;;28.50;;
23826;SDS011;12094;50.822;4.376;2022-12-05T01:59:31;68.55;;;28.50;;
23826;SDS011;12094;50.822;4.376;2022-12-05T02:02:02;75.03;;;31.08;;
23826;SDS011;12094;50.822;4.376;2022-12-05T02:04:32;86.38;;;32.65;;
23826;SDS011;12094;50.822;4.376;2022-12-05T02:07:04;77.15;;;32.30;;
23826;SDS011;12094;50.822;4.376;2022-12-05T02:09:32;80.97;;;32.03;;
23826;SDS011;12094;50.822;4.376;2022-12-05T02:12:00;85.18;;;32.95;;
23826;SDS011;12094;50.822;4.376;2022-12-05T02:14:38;85.87;;;34.17;;
23826;SDS011;12094;50.822;4.376;2022-12-05T02:30:33;95.95;;;36.25;;
23826;SDS011;12094;50.822;4.376;2022-12-05T02:35:50;91.03;;;35.28;;
23826;SDS011;12094;50.822;4.376;2022-12-05T02:41:42;99.32;;;35.03;;
23826;SDS011;12094;50.822;4.376;2022-12-05T02:46:50;109.82;;;36.42;;
23826;SDS011;12094;50.822;4.376;2022-12-05T02:49:21;100.13;;;35.92;;
23826;SDS011;12094;50.822;4.376;2022-12-05T02:51:54;96.20;;;36.53;;
23826;SDS011;12094;50.822;4.376;2022-12-05T02:54:24;102.28;;;36.97;;
23826;SDS011;12094;50.822;4.376;2022-12-05T02:56:54;110.65;;;36.65;;
23826;SDS011;12094;50.822;4.376;2022-12-05T02:59:24;112.30;;;37.63;;
23826;SDS011;12094;50.822;4.376;2022-12-05T03:01:51;104.72;;;36.08;;
23826;SDS011;12094;50.822;4.376;2022-12-05T03:04:20;106.97;;;38.38;;
23826;SDS011;12094;50.822;4.376;2022-12-05T03:06:53;121.35;;;38.13;;
23826;SDS011;12094;50.822;4.376;2022-12-05T03:09:42;107.97;;;35.95;;
23826;SDS011;12094;50.822;4.376;2022-12-05T03:12:19;105.22;;;37.20;;
23826;SDS011;12094;50.822;4.376;2022-12-05T03:14:57;116.60;;;37.30;;
23826;SDS011;12094;50.822;4.376;2022-12-05T03:17:29;101.95;;;36.75;;
23826;SDS011;12094;50.822;4.376;2022-12-05T03:20:06;115.65;;;37.90;;
23826;SDS011;12094;50.822;4.376;2022-12-05T03:22:41;99.53;;;36.90;;
23826;SDS011;12094;50.822;4.376;2022-12-05T03:27:51;95.75;;;34.38;;
23826;SDS011;12094;50.822;4.376;2022-12-05T03:30:23;102.15;;;35.42;;
23826;SDS011;12094;50.822;4.376;2022-12-05T03:35:36;104.40;;;36.35;;
23826;SDS011;12094;50.822;4.376;2022-12-05T03:40:33;89.85;;;32.60;;
23826;SDS011;12094;50.822;4.376;2022-12-05T03:45:42;87.65;;;33.60;;
23826;SDS011;12094;50.822;4.376;2022-12-05T03:48:28;88.00;;;34.33;;
23826;SDS011;12094;50.822;4.376;2022-12-05T03:51:08;80.13;;;31.65;;
23826;SDS011;12094;50.822;4.376;2022-12-05T03:53:48;81.00;;;32.85;;
23826;SDS011;12094;50.822;4.376;2022-12-05T03:56:22;83.80;;;32.00;;
23826;SDS011;12094;50.822;4.376;2022-12-05T03:58:56;81.95;;;32.47;;
23826;SDS011;12094;50.822;4.376;2022-12-05T04:01:30;75.93;;;30.75;;
23826;SDS011;12094;50.822;4.376;2022-12-05T04:04:02;80.53;;;33.50;;
23826;SDS011;12094;50.822;4.376;2022-12-05T04:06:37;71.68;;;30.58;;
23826;SDS011;12094;50.822;4.376;2022-12-05T04:09:08;76.32;;;31.65;;
23826;SDS011;12094;50.822;4.376;2022-12-05T04:11:44;68.70;;;30.05;;
23826;SDS011;12094;50.822;4.376;2022-12-05T04:14:18;72.40;;;30.73;;
23826;SDS011;12094;50.822;4.376;2022-12-05T04:16:57;73.18;;;31.10;;
23826;SDS011;12094;50.822;4.376;2022-12-05T04:22:27;73.90;;;30.38;;
23826;SDS011;12094;50.822;4.376;2022-12-05T04:24:55;74.80;;;30.58;;
23826;SDS011;12094;50.822;4.376;2022-12-05T04:31:21;79.90;;;32.63;;
23826;SDS011;12094;50.822;4.376;2022-12-05T04:36:06;86.13;;;33.00;;
23826;SDS011;12094;50.822;4.376;2022-12-05T04:41:25;79.70;;;30.80;;
23826;SDS011;12094;50.822;4.376;2022-12-05T04:44:00;81.68;;;31.48;;
23826;SDS011;12094;50.822;4.376;2022-12-05T04:46:32;69.68;;;30.95;;
23826;SDS011;12094;50.822;4.376;2022-12-05T04:49:01;74.40;;;29.70;;
23826;SDS011;12094;50.822;4.376;2022-12-05T04:51:32;78.47;;;31.05;;
23826;SDS011;12094;50.822;4.376;2022-12-05T04:54:02;68.60;;;29.63;;
23826;SDS011;12094;50.822;4.376;2022-12-05T04:56:35;71.10;;;28.88;;
23826;SDS011;12094;50.822;4.376;2022-12-05T04:59:05;74.80;;;28.65;;
23826;SDS011;12094;50.822;4.376;2022-12-05T05:01:43;67.95;;;29.40;;
23826;SDS011;12094;50.822;4.376;2022-12-05T05:06:51;61.42;;;28.42;;
23826;SDS011;12094;50.822;4.376;2022-12-05T05:09:18;67.80;;;29.77;;
23826;SDS011;12094;50.822;4.376;2022-12-05T05:11:45;69.53;;;29.90;;
23826;SDS011;12094;50.822;4.376;2022-12-05T05:14:12;70.25;;;29.38;;
23826;SDS011;12094;50.822;4.376;2022-12-05T05:16:39;72.28;;;31.73;;
23826;SDS011;12094;50.822;4.376;2022-12-05T05:19:07;65.68;;;30.95;;
23826;SDS011;12094;50.822;4.376;2022-12-05T05:21:37;82.47;;;32.33;;
23826;SDS011;12094;50.822;4.376;2022-12-05T05:24:06;65.03;;;29.30;;
23826;SDS011;12094;50.822;4.376;2022-12-05T05:26:35;77.70;;;31.48;;
23826;SDS011;12094;50.822;4.376;2022-12-05T05:29:07;85.75;;;34.08;;
23826;SDS011;12094;50.822;4.376;2022-12-05T05:31:36;82.63;;;31.50;;
23826;SDS011;12094;50.822;4.376;2022-12-05T05:34:04;75.45;;;31.92;;
23826;SDS011;12094;50.822;4.376;2022-12-05T05:36:35;79.82;;;32.60;;
23826;SDS011;12094;50.822;4.376;2022-12-05T05:39:04;74.70;;;31.38;;
23826;SDS011;12094;50.822;4.376;2022-12-05T05:41:35;79.05;;;32.10;;
23826;SDS011;12094;50.822;4.376;2022-12-05T05:44:02;76.65;;;31.65;;
23826;SDS011;12094;50.822;4.376;2022-12-05T05:46:31;87.22;;;33.10;;
23826;SDS011;12094;50.822;4.376;2022-12-05T05:48:59;83.40;;;33.95;;
23826;SDS011;12094;50.822;4.376;2022-12-05T05:51:27;85.30;;;34.50;;
23826;SDS011;12094;50.822;4.376;2022-12-05T05:53:56;85.60;;;32.03;;
23826;SDS011;12094;50.822;4.376;2022-12-05T05:56:24;79.65;;;32.90;;
23826;SDS011;12094;50.822;4.376;2022-12-05T05:58:55;81.05;;;32.50;;
23826;SDS011;12094;50.822;4.376;2022-12-05T06:03:51;82.75;;;32.45;;
23826;SDS011;12094;50.822;4.376;2022-12-05T06:06:18;85.75;;;32.95;;
23826;SDS011;12094;50.822;4.376;2022-12-05T06:08:49;90.30;;;35.20;;
23826;SDS011;12094;50.822;4.376;2022-12-05T06:11:20;86.15;;;33.53;;
23826;SDS011;12094;50.822;4.376;2022-12-05T06:13:55;89.75;;;33.78;;
23826;SDS011;12094;50.822;4.376;2022-12-05T06:16:23;90.65;;;34.08;;
23826;SDS011;12094;50.822;4.376;2022-12-05T06:18:51;92.88;;;33.65;;
23826;SDS011;12094;50.822;4.376;2022-12-05T06:21:19;84.55;;;34.50;;
23826;SDS011;12094;50.822;4.376;2022-12-05T06:23:47;84.28;;;32.65;;
23826;SDS011;12094;50.822;4.376;2022-12-05T06:26:15;82.15;;;32.88;;
23826;SDS011;12094;50.822;4.376;2022-12-05T06:28:43;81.25;;;32.20;;
23826;SDS011;12094;50.822;4.376;2022-12-05T06:31:13;80.60;;;32.28;;
23826;SDS011;12094;50.822;4.376;2022-12-05T06:33:44;73.65;;;30.83;;
23826;SDS011;12094;50.822;4.376;2022-12-05T06:36:13;78.70;;;31.77;;
23826;SDS011;12094;50.822;4.376;2022-12-05T06:38:41;72.45;;;30.63;;
23826;SDS011;12094;50.822;4.376;2022-12-05T06:41:09;77.57;;;31.55;;
23826;SDS011;12094;50.822;4.376;2022-12-05T06:43:39;79.63;;;34.95;;
23826;SDS011;12094;50.822;4.376;2022-12-05T06:46:07;70.47;;;31.05;;
23826;SDS011;12094;50.822;4.376;2022-12-05T06:48:35;73.68;;;29.95;;
23826;SDS011;12094;50.822;4.376;2022-12-05T06:51:03;73.43;;;30.52;;
23826;SDS011;12094;50.822;4.376;2022-12-05T06:53:30;70.50;;;30.63;;
23826;SDS011;12094;50.822;4.376;2022-12-05T06:55:58;89.22;;;38.15;;
23826;SDS011;12094;50.822;4.376;2022-12-05T06:58:27;67.95;;;29.60;;
23826;SDS011;12094;50.822;4.376;2022-12-05T07:00:56;73.93;;;30.88;;
23826;SDS011;12094;50.822;4.376;2022-12-05T07:03:42;75.20;;;31.77;;
23826;SDS011;12094;50.822;4.376;2022-12-05T07:09:17;73.68;;;30.70;;
23826;SDS011;12094;50.822;4.376;2022-12-05T07:11:46;68.50;;;30.65;;
23826;SDS011;12094;50.822;4.376;2022-12-05T07:14:18;70.72;;;29.50;;
23826;SDS011;12094;50.822;4.376;2022-12-05T07:17:06;79.32;;;31.40;;
23826;SDS011;12094;50.822;4.376;2022-12-05T07:19:35;68.05;;;29.90;;
23826;SDS011;12094;50.822;4.376;2022-12-05T07:22:03;69.78;;;30.90;;
23826;SDS011;12094;50.822;4.376;2022-12-05T07:24:33;78.68;;;31.80;;
23826;SDS011;12094;50.822;4.376;2022-12-05T07:27:01;71.60;;;30.27;;
23826;SDS011;12094;50.822;4.376;2022-12-05T07:29:28;73.72;;;31.50;;
23826;SDS011;12094;50.822;4.376;2022-12-05T07:31:55;69.63;;;30.98;;
23826;SDS011;12094;50.822;4.376;2022-12-05T07:34:23;70.35;;;30.50;;
23826;SDS011;12094;50.822;4.376;2022-12-05T07:36:51;68.38;;;30.38;;
23826;SDS011;12094;50.822;4.376;2022-12-05T07:39:21;66.20;;;29.20;;
23826;SDS011;12094;50.822;4.376;2022-12-05T07:41:48;76.15;;;31.42;;
23826;SDS011;12094;50.822;4.376;2022-12-05T07:44:16;73.80;;;30.95;;
23826;SDS011;12094;50.822;4.376;2022-12-05T07:46:48;71.57;;;30.63;;
23826;SDS011;12094;50.822;4.376;2022-12-05T07:49:15;71.00;;;30.70;;
23826;SDS011;12094;50.822;4.376;2022-12-05T07:51:43;69.80;;;30.23;;
23826;SDS011;12094;50.822;4.376;2022-12-05T07:54:11;73.88;;;30.77;;
23826;SDS011;12094;50.822;4.376;2022-12-05T07:56:40;66.22;;;30.35;;
23826;SDS011;12094;50.822;4.376;2022-12-05T07:59:13;70.25;;;31.02;;
23826;SDS011;12094;50.822;4.376;2022-12-05T08:01:41;66.07;;;29.73;;
23826;SDS011;12094;50.822;4.376;2022-12-05T08:04:09;70.72;;;30.23;;
23826;SDS011;12094;50.822;4.376;2022-12-05T08:06:42;72.05;;;29.90;;
23826;SDS011;12094;50.822;4.376;2022-12-05T08:09:10;77.75;;;29.58;;
23826;SDS011;12094;50.822;4.376;2022-12-05T08:11:37;70.00;;;29.77;;
23826;SDS011;12094;50.822;4.376;2022-12-05T08:14:05;65.65;;;30.00;;
23826;SDS011;12094;50.822;4.376;2022-12-05T08:16:32;78.20;;;31.60;;
23826;SDS011;12094;50.822;4.376;2022-12-05T08:19:05;73.85;;;30.20;;
23826;SDS011;12094;50.822;4.376;2022-12-05T08:21:36;70.00;;;30.42;;
23826;SDS011;12094;50.822;4.376;2022-12-05T08:24:04;65.13;;;29.33;;
23826;SDS011;12094;50.822;4.376;2022-12-05T08:26:35;72.30;;;29.73;;
23826;SDS011;12094;50.822;4.376;2022-12-05T08:29:08;70.22;;;29.80;;
23826;SDS011;12094;50.822;4.376;2022-12-05T08:31:43;72.57;;;30.45;;
23826;SDS011;12094;50.822;4.376;2022-12-05T08:34:27;71.93;;;29.08;;
23826;SDS011;12094;50.822;4.376;2022-12-05T08:36:54;74.32;;;31.05;;
23826;SDS011;12094;50.822;4.376;2022-12-05T08:39:21;63.60;;;27.15;;
23826;SDS011;12094;50.822;4.376;2022-12-05T08:41:49;60.15;;;26.58;;
23826;SDS011;12094;50.822;4.376;2022-12-05T08:44:17;59.22;;;26.95;;
23826;SDS011;12094;50.822;4.376;2022-12-05T08:46:45;61.38;;;27.75;;
23826;SDS011;12094;50.822;4.376;2022-12-05T08:49:15;61.17;;;26.80;;
23826;SDS011;12094;50.822;4.376;2022-12-05T08:51:43;57.35;;;26.38;;
23826;SDS011;12094;50.822;4.376;2022-12-05T08:54:11;60.35;;;26.83;;
23826;SDS011;12094;50.822;4.376;2022-12-05T08:56:41;58.80;;;26.30;;
23826;SDS011;12094;50.822;4.376;2022-12-05T08:59:09;53.28;;;25.08;;
23826;SDS011;12094;50.822;4.376;2022-12-05T09:01:38;49.38;;;24.15;;
23826;SDS011;12094;50.822;4.376;2022-12-05T09:04:06;50.15;;;25.17;;
23826;SDS011;12094;50.822;4.376;2022-12-05T09:06:35;49.75;;;24.70;;
23826;SDS011;12094;50.822;4.376;2022-12-05T09:09:06;50.58;;;24.35;;
23826;SDS011;12094;50.822;4.376;2022-12-05T09:11:38;43.97;;;23.52;;
23826;SDS011;12094;50.822;4.376;2022-12-05T09:14:37;45.75;;;22.77;;
23826;SDS011;12094;50.822;4.376;2022-12-05T09:17:10;48.20;;;23.80;;
23826;SDS011;12094;50.822;4.376;2022-12-05T09:19:38;45.80;;;23.63;;
23826;SDS011;12094;50.822;4.376;2022-12-05T09:22:10;46.38;;;23.48;;
23826;SDS011;12094;50.822;4.376;2022-12-05T09:24:36;46.42;;;23.65;;
23826;SDS011;12094;50.822;4.376;2022-12-05T09:27:29;42.65;;;22.13;;
23826;SDS011;12094;50.822;4.376;2022-12-05T09:29:56;42.90;;;22.33;;
23826;SDS011;12094;50.822;4.376;2022-12-05T09:32:26;40.47;;;22.58;;
23826;SDS011;12094;50.822;4.376;2022-12-05T09:34:55;42.42;;;22.60;;
23826;SDS011;12094;50.822;4.376;2022-12-05T09:37:33;37.45;;;21.08;;
23826;SDS011;12094;50.822;4.376;2022-12-05T09:40:06;38.08;;;22.27;;
23826;SDS011;12094;50.822;4.376;2022-12-05T09:42:53;40.30;;;20.90;;
23826;SDS011;12094;50.822;4.376;2022-12-05T09:45:41;37.65;;;19.92;;
23826;SDS011;12094;50.822;4.376;2022-12-05T09:48:15;38.15;;;20.80;;
23826;SDS011;12094;50.822;4.376;2022-12-05T09:50:49;32.58;;;19.90;;
23826;SDS011;12094;50.822;4.376;2022-12-05T09:53:31;32.35;;;19.13;;
23826;SDS011;12094;50.822;4.376;2022-12-05T09:56:04;33.75;;;20.05;;
23826;SDS011;12094;50.822;4.376;2022-12-05T09:58:53;40.65;;;22.25;;
23826;SDS011;12094;50.822;4.376;2022-12-05T10:01:35;33.38;;;18.63;;
23826;SDS011;12094;50.822;4.376;2022-12-05T10:07:40;30.35;;;17.10;;
23826;SDS011;12094;50.822;4.376;2022-12-05T10:10:27;32.00;;;17.67;;
23826;SDS011;12094;50.822;4.376;2022-12-05T10:16:04;27.88;;;16.80;;
23826;SDS011;12094;50.822;4.376;2022-12-05T10:18:40;28.20;;;16.50;;
23826;SDS011;12094;50.822;4.376;2022-12-05T10:21:29;29.38;;;17.10;;
23826;SDS011;12094;50.822;4.376;2022-12-05T10:24:19;31.88;;;17.23;;
23826;SDS011;12094;50.822;4.376;2022-12-05T10:30:12;29.20;;;15.98;;
23826;SDS011;12094;50.822;4.376;2022-12-05T10:32:55;26.98;;;16.42;;
23826;SDS011;12094;50.822;4.376;2022-12-05T10:35:35;25.88;;;14.43;;
23826;SDS011;12094;50.822;4.376;2022-12-05T10:38:21;29.50;;;15.93;;
23826;SDS011;12094;50.822;4.376;2022-12-05T10:43:31;29.05;;;16.52;;
23826;SDS011;12094;50.822;4.376;2022-12-05T10:46:07;30.52;;;16.27;;
23826;SDS011;12094;50.822;4.376;2022-12-05T10:48:52;26.90;;;16.02;;
23826;SDS011;12094;50.822;4.376;2022-12-05T10:51:22;32.92;;;16.02;;
23826;SDS011;12094;50.822;4.376;2022-12-05T10:54:01;27.25;;;16.17;;
23826;SDS011;12094;50.822;4.376;2022-12-05T10:56:49;23.77;;;14.70;;
23826;SDS011;12094;50.822;4.376;2022-12-05T10:59:19;26.95;;;15.55;;
23826;SDS011;12094;50.822;4.376;2022-12-05T11:04:29;26.17;;;16.40;;
23826;SDS011;12094;50.822;4.376;2022-12-05T11:07:09;26.10;;;16.52;;
23826;SDS011;12094;50.822;4.376;2022-12-05T11:09:56;28.85;;;15.65;;
23826;SDS011;12094;50.822;4.376;2022-12-05T11:22:47;27.63;;;15.90;;
23826;SDS011;12094;50.822;4.376;2022-12-05T11:27:53;23.60;;;14.43;;
23826;SDS011;12094;50.822;4.376;2022-12-05T11:30:27;28.42;;;16.52;;
23826;SDS011;12094;50.822;4.376;2022-12-05T11:35:47;25.98;;;14.93;;
23826;SDS011;12094;50.822;4.376;2022-12-05T11:38:18;22.58;;;14.57;;
23826;SDS011;12094;50.822;4.376;2022-12-05T11:57:39;19.23;;;12.52;;
23826;SDS011;12094;50.822;4.376;2022-12-05T12:00:22;22.52;;;14.40;;
23826;SDS011;12094;50.822;4.376;2022-12-05T12:05:55;22.20;;;13.98;;
23826;SDS011;12094;50.822;4.376;2022-12-05T12:08:34;22.30;;;13.98;;
23826;SDS011;12094;50.822;4.376;2022-12-05T12:11:37;19.75;;;12.27;;
23826;SDS011;12094;50.822;4.376;2022-12-05T12:15:02;20.73;;;12.75;;
23826;SDS011;12094;50.822;4.376;2022-12-05T12:21:28;19.67;;;12.60;;
23826;SDS011;12094;50.822;4.376;2022-12-05T12:24:27;19.75;;;12.35;;
23826;SDS011;12094;50.822;4.376;2022-12-05T12:36:24;24.77;;;15.73;;
23826;SDS011;12094;50.822;4.376;2022-12-05T12:39:09;22.88;;;14.85;;
23826;SDS011;12094;50.822;4.376;2022-12-05T12:47:59;26.95;;;16.58;;
23826;SDS011;12094;50.822;4.376;2022-12-05T12:50:38;26.48;;;17.13;;
23826;SDS011;12094;50.822;4.376;2022-12-05T12:53:20;27.27;;;17.85;;
23826;SDS011;12094;50.822;4.376;2022-12-05T13:01:51;26.67;;;16.37;;
23826;SDS011;12094;50.822;4.376;2022-12-05T13:04:22;30.27;;;17.90;;
23826;SDS011;12094;50.822;4.376;2022-12-05T13:07:12;28.23;;;17.65;;
23826;SDS011;12094;50.822;4.376;2022-12-05T13:09:56;31.50;;;17.25;;
23826;SDS011;12094;50.822;4.376;2022-12-05T13:12:30;30.63;;;18.35;;
23826;SDS011;12094;50.822;4.376;2022-12-05T13:15:04;29.58;;;17.75;;
23826;SDS011;12094;50.822;4.376;2022-12-05T13:18:12;27.02;;;16.50;;
23826;SDS011;12094;50.822;4.376;2022-12-05T13:20:43;27.67;;;17.33;;
23826;SDS011;12094;50.822;4.376;2022-12-05T13:31:01;31.02;;;18.80;;
23826;SDS011;12094;50.822;4.376;2022-12-05T13:33:48;26.90;;;16.48;;
23826;SDS011;12094;50.822;4.376;2022-12-05T13:36:19;25.63;;;15.93;;
23826;SDS011;12094;50.822;4.376;2022-12-05T13:42:03;21.65;;;14.43;;
23826;SDS011;12094;50.822;4.376;2022-12-05T13:44:43;22.33;;;14.63;;
23826;SDS011;12094;50.822;4.376;2022-12-05T13:50:17;25.27;;;15.93;;
23826;SDS011;12094;50.822;4.376;2022-12-05T13:53:19;26.50;;;16.38;;
23826;SDS011;12094;50.822;4.376;2022-12-05T14:04:20;24.92;;;15.07;;
23826;SDS011;12094;50.822;4.376;2022-12-05T14:07:35;23.20;;;15.05;;
23826;SDS011;12094;50.822;4.376;2022-12-05T14:10:09;25.73;;;16.02;;
23826;SDS011;12094;50.822;4.376;2022-12-05T14:18:57;28.00;;;16.33;;
23826;SDS011;12094;50.822;4.376;2022-12-05T14:21:53;25.97;;;16.27;;
23826;SDS011;12094;50.822;4.376;2022-12-05T14:24:52;27.98;;;16.75;;
23826;SDS011;12094;50.822;4.376;2022-12-05T14:28:10;26.98;;;16.65;;
23826;SDS011;12094;50.822;4.376;2022-12-05T14:34:16;27.50;;;16.20;;
23826;SDS011;12094;50.822;4.376;2022-12-05T14:44:01;26.10;;;15.75;;
23826;SDS011;12094;50.822;4.376;2022-12-05T14:47:31;24.77;;;15.80;;
23826;SDS011;12094;50.822;4.376;2022-12-05T14:57:11;27.48;;;15.95;;
23826;SDS011;12094;50.822;4.376;2022-12-05T15:00:05;26.08;;;15.65;;
23826;SDS011;12094;50.822;4.376;2022-12-05T15:02:55;28.15;;;16.63;;
23826;SDS011;12094;50.822;4.376;2022-12-05T15:08:41;32.25;;;17.95;;
23826;SDS011;12094;50.822;4.376;2022-12-05T15:11:25;31.05;;;17.20;;
23826;SDS011;12094;50.822;4.376;2022-12-05T15:14:13;36.90;;;19.50;;
23826;SDS011;12094;50.822;4.376;2022-12-05T15:17:07;41.47;;;21.35;;
23826;SDS011;12094;50.822;4.376;2022-12-05T15:19:56;50.17;;;24.33;;
23826;SDS011;12094;50.822;4.376;2022-12-05T15:22:40;49.15;;;24.52;;
23826;SDS011;12094;50.822;4.376;2022-12-05T15:29:37;45.65;;;23.02;;
23826;SDS011;12094;50.822;4.376;2022-12-05T15:32:17;48.03;;;24.50;;
23826;SDS011;12094;50.822;4.376;2022-12-05T15:35:11;50.17;;;25.75;;
23826;SDS011;12094;50.822;4.376;2022-12-05T15:37:52;49.25;;;25.73;;
23826;SDS011;12094;50.822;4.376;2022-12-05T15:40:24;48.83;;;25.10;;
23826;SDS011;12094;50.822;4.376;2022-12-05T15:43:01;54.70;;;26.67;;
23826;SDS011;12094;50.822;4.376;2022-12-05T15:56:07;67.65;;;28.70;;
23826;SDS011;12094;50.822;4.376;2022-12-05T15:59:09;65.68;;;29.20;;
23826;SDS011;12094;50.822;4.376;2022-12-05T16:01:59;64.03;;;30.35;;
23826;SDS011;12094;50.822;4.376;2022-12-05T16:04:45;64.90;;;30.55;;
23826;SDS011;12094;50.822;4.376;2022-12-05T16:07:23;73.90;;;31.58;;
23826;SDS011;12094;50.822;4.376;2022-12-05T16:10:00;70.72;;;30.80;;
23826;SDS011;12094;50.822;4.376;2022-12-05T16:12:48;70.22;;;32.38;;
23826;SDS011;12094;50.822;4.376;2022-12-05T16:16:22;81.95;;;34.88;;
23826;SDS011;12094;50.822;4.376;2022-12-05T16:19:03;74.13;;;33.65;;
23826;SDS011;12094;50.822;4.376;2022-12-05T16:21:35;82.43;;;33.15;;
23826;SDS011;12094;50.822;4.376;2022-12-05T16:26:53;76.18;;;33.33;;
23826;SDS011;12094;50.822;4.376;2022-12-05T16:29:31;78.28;;;34.15;;
23826;SDS011;12094;50.822;4.376;2022-12-05T16:32:18;83.25;;;35.53;;
23826;SDS011;12094;50.822;4.376;2022-12-05T16:38:27;86.07;;;35.92;;
23826;SDS011;12094;50.822;4.376;2022-12-05T16:45:00;86.32;;;36.60;;
23826;SDS011;12094;50.822;4.376;2022-12-05T16:50:39;80.18;;;35.63;;
23826;SDS011;12094;50.822;4.376;2022-12-05T16:53:30;84.00;;;36.22;;
23826;SDS011;12094;50.822;4.376;2022-12-05T16:55:59;82.07;;;35.80;;
23826;SDS011;12094;50.822;4.376;2022-12-05T16:58:29;81.18;;;36.40;;
23826;SDS011;12094;50.822;4.376;2022-12-05T17:01:04;78.05;;;36.75;;
23826;SDS011;12094;50.822;4.376;2022-12-05T17:07:01;83.63;;;36.72;;
23826;SDS011;12094;50.822;4.376;2022-12-05T17:09:46;77.13;;;35.40;;
23826;SDS011;12094;50.822;4.376;2022-12-05T17:12:20;90.63;;;38.03;;
23826;SDS011;12094;50.822;4.376;2022-12-05T17:14:53;89.65;;;38.47;;
23826;SDS011;12094;50.822;4.376;2022-12-05T17:17:23;80.65;;;36.70;;
23826;SDS011;12094;50.822;4.376;2022-12-05T17:19:49;88.53;;;39.38;;
23826;SDS011;12094;50.822;4.376;2022-12-05T17:25:17;81.15;;;39.38;;
23826;SDS011;12094;50.822;4.376;2022-12-05T17:31:16;85.07;;;38.03;;
23826;SDS011;12094;50.822;4.376;2022-12-05T17:33:57;82.50;;;38.28;;
23826;SDS011;12094;50.822;4.376;2022-12-05T17:40:06;83.78;;;39.08;;
23826;SDS011;12094;50.822;4.376;2022-12-05T17:43:27;86.45;;;38.65;;
23826;SDS011;12094;50.822;4.376;2022-12-05T17:45:59;89.68;;;39.40;;
23826;SDS011;12094;50.822;4.376;2022-12-05T17:48:42;88.57;;;39.22;;
23826;SDS011;12094;50.822;4.376;2022-12-05T17:51:13;76.55;;;37.15;;
23826;SDS011;12094;50.822;4.376;2022-12-05T17:54:32;74.00;;;35.00;;
23826;SDS011;12094;50.822;4.376;2022-12-05T17:57:05;74.10;;;34.70;;
23826;SDS011;12094;50.822;4.376;2022-12-05T17:59:37;75.53;;;33.97;;
23826;SDS011;12094;50.822;4.376;2022-12-05T18:02:49;71.22;;;35.83;;
23826;SDS011;12094;50.822;4.376;2022-12-05T18:05:41;63.72;;;33.00;;
23826;SDS011;12094;50.822;4.376;2022-12-05T18:08:13;67.32;;;33.22;;
23826;SDS011;12094;50.822;4.376;2022-12-05T18:10:51;69.13;;;34.72;;
23826;SDS011;12094;50.822;4.376;2022-12-05T18:13:19;75.53;;;35.35;;
23826;SDS011;12094;50.822;4.376;2022-12-05T18:15:46;69.68;;;36.40;;
23826;SDS011;12094;50.822;4.376;2022-12-05T18:18:15;67.50;;;35.92;;
23826;SDS011;12094;50.822;4.376;2022-12-05T18:20:43;74.90;;;37.75;;
23826;SDS011;12094;50.822;4.376;2022-12-05T18:23:10;66.80;;;35.42;;
23826;SDS011;12094;50.822;4.376;2022-12-05T18:25:39;64.28;;;33.30;;
23826;SDS011;12094;50.822;4.376;2022-12-05T18:28:07;69.60;;;35.10;;
23826;SDS011;12094;50.822;4.376;2022-12-05T18:30:36;64.70;;;34.40;;
23826;SDS011;12094;50.822;4.376;2022-12-05T18:33:04;70.57;;;34.08;;
23826;SDS011;12094;50.822;4.376;2022-12-05T18:38:06;72.28;;;35.55;;
23826;SDS011;12094;50.822;4.376;2022-12-05T18:40:35;68.80;;;35.38;;
23826;SDS011;12094;50.822;4.376;2022-12-05T18:43:02;69.63;;;34.03;;
23826;SDS011;12094;50.822;4.376;2022-12-05T18:45:30;73.18;;;36.20;;
23826;SDS011;12094;50.822;4.376;2022-12-05T18:48:01;71.85;;;36.30;;
23826;SDS011;12094;50.822;4.376;2022-12-05T18:50:52;69.93;;;34.55;;
23826;SDS011;12094;50.822;4.376;2022-12-05T18:53:19;61.65;;;32.13;;